createdAt,value
2022-10-23T00:01:54.854Z,11.10
2022-10-23T00:04:56.466Z,11.00
2022-10-23T00:08:00.163Z,10.90
2022-10-23T00:11:05.678Z,10.90
2022-10-23T00:14:07.815Z,10.80
2022-10-23T00:17:12.178Z,10.80
2022-10-23T00:20:14.828Z,10.80
2022-10-23T00:23:17.251Z,10.80
2022-10-23T00:26:19.230Z,10.70
2022-10-23T00:29:20.879Z,10.70
2022-10-23T00:32:22.495Z,10.60
2022-10-23T00:35:24.142Z,10.60
2022-10-23T00:38:25.983Z,10.50
2022-10-23T00:41:29.252Z,10.60
2022-10-23T00:44:30.787Z,10.60
2022-10-23T00:47:32.500Z,10.60
2022-10-23T00:50:34.087Z,10.50
2022-10-23T00:53:35.695Z,10.50
2022-10-23T00:56:40.304Z,10.50
2022-10-23T00:59:42.527Z,10.50
2022-10-23T01:02:44.588Z,10.50
2022-10-23T01:05:50.204Z,10.50
2022-10-23T01:09:03.065Z,10.60
2022-10-23T01:12:25.420Z,10.50
2022-10-23T01:15:44.106Z,10.40
2022-10-23T01:18:52.234Z,10.40
2022-10-23T01:22:19.449Z,10.40
2022-10-23T01:25:20.985Z,10.40
2022-10-23T01:28:30.418Z,10.50
2022-10-23T01:31:42.412Z,10.40
2022-10-23T01:35:00.507Z,10.40
2022-10-23T01:38:14.859Z,10.40
2022-10-23T01:41:19.420Z,10.40
2022-10-23T01:44:29.969Z,10.50
2022-10-23T01:47:34.168Z,10.50
2022-10-23T01:50:36.831Z,10.50
2022-10-23T01:53:43.134Z,10.50
2022-10-23T01:56:48.499Z,10.50
2022-10-23T01:59:55.351Z,10.50
2022-10-23T02:02:58.740Z,10.40
2022-10-23T02:06:00.403Z,10.30
2022-10-23T02:09:02.096Z,10.20
2022-10-23T02:12:17.528Z,10.10
2022-10-23T02:15:29.633Z,10.20
2022-10-23T02:19:06.751Z,10.20
2022-10-23T02:22:14.236Z,10.10
2022-10-23T02:25:21.497Z,10.00
2022-10-23T02:28:29.441Z,10.00
2022-10-23T02:31:31.957Z,9.90
2022-10-23T02:34:33.639Z,9.90
2022-10-23T02:37:35.202Z,9.80
2022-10-23T02:40:43.547Z,9.80
2022-10-23T02:44:03.635Z,9.80
2022-10-23T02:47:26.478Z,9.80
2022-10-23T02:51:02.799Z,9.80
2022-10-23T02:54:22.749Z,9.80
2022-10-23T02:57:41.750Z,9.80
2022-10-23T03:00:49.750Z,9.80
2022-10-23T03:04:00.999Z,9.80
2022-10-23T03:07:02.846Z,9.70
2022-10-23T03:10:04.961Z,9.70
2022-10-23T03:13:07.055Z,9.60
2022-10-23T03:16:08.635Z,9.60
2022-10-23T03:22:18.692Z,9.70
2022-10-23T03:25:20.259Z,9.70
2022-10-23T03:28:22.486Z,9.60
2022-10-23T03:31:24.036Z,9.70
2022-10-23T03:34:25.722Z,9.70
2022-10-23T03:37:27.357Z,9.70
2022-10-23T03:40:29.080Z,9.70
2022-10-23T03:43:30.889Z,9.70
2022-10-23T03:46:32.944Z,9.70
2022-10-23T03:49:34.793Z,9.70
2022-10-23T03:52:36.608Z,9.70
2022-10-23T03:55:38.333Z,9.70
2022-10-23T03:58:40.276Z,9.60
2022-10-23T04:01:41.935Z,9.60
2022-10-23T04:04:43.677Z,9.70
2022-10-23T04:07:45.312Z,9.70
2022-10-23T04:10:46.904Z,9.70
2022-10-23T04:13:48.525Z,9.70
2022-10-23T04:16:50.088Z,9.60
2022-10-23T04:19:51.703Z,9.60
2022-10-23T04:22:53.260Z,9.60
2022-10-23T04:25:58.352Z,9.60
2022-10-23T04:29:00.152Z,9.60
2022-10-23T04:32:01.710Z,9.60
2022-10-23T04:35:03.573Z,9.60
2022-10-23T04:38:05.154Z,9.50
2022-10-23T04:41:06.823Z,9.50
2022-10-23T04:44:08.673Z,9.50
2022-10-23T04:47:10.316Z,9.50
2022-10-23T04:50:11.891Z,9.60
2022-10-23T04:53:13.451Z,9.50
2022-10-23T04:56:15.899Z,9.50
2022-10-23T04:59:17.505Z,9.50
2022-10-23T05:02:19.136Z,9.50
2022-10-23T05:05:20.900Z,9.50
2022-10-23T05:08:23.131Z,9.40
2022-10-23T05:11:24.772Z,9.40
2022-10-23T05:14:26.358Z,9.30
2022-10-23T05:17:35.304Z,9.30
2022-10-23T05:20:38.723Z,9.30
2022-10-23T05:23:41.860Z,9.30
2022-10-23T05:26:43.483Z,9.30
2022-10-23T05:29:45.532Z,9.30
2022-10-23T05:32:47.644Z,9.30
2022-10-23T05:35:49.264Z,9.30
2022-10-23T05:38:51.198Z,9.30
2022-10-23T05:41:54.904Z,9.20
2022-10-23T05:44:56.505Z,9.30
2022-10-23T05:48:10.588Z,9.30
2022-10-23T05:51:12.804Z,9.30
2022-10-23T05:54:14.494Z,9.30
2022-10-23T06:00:22.615Z,9.30
2022-10-23T06:03:24.267Z,9.20
2022-10-23T06:06:25.890Z,9.10
2022-10-23T06:09:27.886Z,9.10
2022-10-23T06:12:29.509Z,9.10
2022-10-23T06:15:31.133Z,9.10
2022-10-23T06:18:32.818Z,9.10
2022-10-23T06:21:37.412Z,9.10
2022-10-23T06:24:39.154Z,9.20
2022-10-23T06:27:40.790Z,9.30
2022-10-23T06:30:42.399Z,9.30
2022-10-23T06:33:44.026Z,9.10
2022-10-23T06:36:45.648Z,9.00
2022-10-23T06:39:47.299Z,9.00
2022-10-23T06:42:48.951Z,9.00
2022-10-23T06:45:50.587Z,9.00
2022-10-23T06:48:53.672Z,9.00
2022-10-23T06:51:55.291Z,9.00
2022-10-23T06:54:57.051Z,9.00
2022-10-23T06:57:59.170Z,9.10
2022-10-23T07:01:07.865Z,9.10
2022-10-23T07:04:09.615Z,9.20
2022-10-23T07:07:11.209Z,9.30
2022-10-23T07:13:15.367Z,9.50
2022-10-23T07:16:19.838Z,9.60
2022-10-23T07:19:21.556Z,9.70
2022-10-23T07:22:23.286Z,9.80
2022-10-23T07:25:26.472Z,9.90
2022-10-23T07:28:28.095Z,10.00
2022-10-23T07:31:29.879Z,10.10
2022-10-23T07:34:32.060Z,10.30
2022-10-23T07:37:33.761Z,10.50
2022-10-23T07:40:35.326Z,10.60
2022-10-23T07:43:37.513Z,10.80
2022-10-23T07:46:39.195Z,10.90
2022-10-23T07:49:41.226Z,11.10
2022-10-23T07:52:42.976Z,11.10
2022-10-23T07:55:55.083Z,11.20
2022-10-23T07:58:56.974Z,11.40
2022-10-23T08:01:58.716Z,11.50
2022-10-23T08:05:00.526Z,11.50
2022-10-23T08:08:02.133Z,11.80
2022-10-23T08:11:03.847Z,11.90
2022-10-23T08:14:06.180Z,12.10
2022-10-23T08:17:09.649Z,12.30
2022-10-23T08:20:13.650Z,12.40
2022-10-23T08:23:18.348Z,12.60
2022-10-23T08:26:19.993Z,12.70
2022-10-23T08:29:21.668Z,12.80
2022-10-23T08:32:23.308Z,12.90
2022-10-23T08:35:25.697Z,13.00
2022-10-23T08:38:27.318Z,13.20
2022-10-23T08:41:42.770Z,13.10
2022-10-23T08:45:03.893Z,13.20
2022-10-23T08:48:21.425Z,13.30
2022-10-23T08:51:41.341Z,13.20
2022-10-23T08:54:59.873Z,13.20
2022-10-23T08:58:15.904Z,13.30
2022-10-23T09:01:45.838Z,13.50
2022-10-23T09:04:50.222Z,13.70
2022-10-23T09:08:25.683Z,13.80
2022-10-23T09:11:47.787Z,13.80
2022-10-23T09:14:55.358Z,13.90
2022-10-23T09:18:07.671Z,13.90
2022-10-23T09:21:10.641Z,14.00
2022-10-23T09:24:19.407Z,14.10
2022-10-23T09:27:21.369Z,14.30
2022-10-23T09:30:43.173Z,14.50
2022-10-23T09:34:01.464Z,14.60
2022-10-23T09:37:26.803Z,14.80
2022-10-23T09:40:43.779Z,14.90
2022-10-23T09:43:45.544Z,15.00
2022-10-23T09:46:53.748Z,15.00
2022-10-23T09:49:57.030Z,15.10
2022-10-23T09:52:59.096Z,14.90
2022-10-23T09:56:29.951Z,14.80
2022-10-23T09:59:33.766Z,15.00
2022-10-23T10:02:36.698Z,15.10
2022-10-23T10:05:41.648Z,15.20
2022-10-23T10:08:49.904Z,15.40
2022-10-23T10:12:00.051Z,15.50
2022-10-23T10:15:28.053Z,15.50
2022-10-23T10:19:03.269Z,15.40
2022-10-23T10:22:30.681Z,15.50
2022-10-23T10:25:35.371Z,15.60
2022-10-23T10:29:15.015Z,15.50
2022-10-23T10:32:35.712Z,15.30
2022-10-23T10:35:42.808Z,15.40
2022-10-23T10:38:51.441Z,15.50
2022-10-23T10:42:20.990Z,15.40
2022-10-23T10:45:32.791Z,15.30
2022-10-23T10:48:56.914Z,15.20
2022-10-23T10:52:21.284Z,15.40
2022-10-23T10:55:42.633Z,15.50
2022-10-23T10:58:52.694Z,15.60
2022-10-23T11:02:05.212Z,15.70
2022-10-23T11:05:31.070Z,15.90
2022-10-23T11:08:49.870Z,16.00
2022-10-23T11:11:59.565Z,16.20
2022-10-23T11:15:01.427Z,16.30
2022-10-23T11:18:11.907Z,16.60
2022-10-23T11:21:32.403Z,16.80
2022-10-23T11:24:45.327Z,16.90
2022-10-23T11:28:14.628Z,17.20
2022-10-23T11:31:57.791Z,17.40
2022-10-23T11:35:40.548Z,17.80
2022-10-23T11:38:46.706Z,18.10
2022-10-23T11:41:57.711Z,18.10
2022-10-23T11:44:59.338Z,18.20
2022-10-23T11:48:19.051Z,18.50
2022-10-23T11:51:34.301Z,18.50
2022-10-23T11:54:35.927Z,18.20
2022-10-23T11:57:37.492Z,18.20
2022-10-23T12:00:51.233Z,18.40
2022-10-23T12:04:00.272Z,18.40
2022-10-23T12:07:13.381Z,18.50
2022-10-23T12:10:26.626Z,18.60
2022-10-23T12:13:36.241Z,18.50
2022-10-23T12:16:37.923Z,18.70
2022-10-23T12:19:50.835Z,18.80
2022-10-23T12:23:30.374Z,18.90
2022-10-23T12:26:54.975Z,19.00
2022-10-23T12:30:14.476Z,19.10
2022-10-23T12:33:43.169Z,19.10
2022-10-23T12:37:11.123Z,19.30
2022-10-23T12:40:12.788Z,19.50
2022-10-23T12:43:42.354Z,19.50
2022-10-23T12:46:55.643Z,19.50
2022-10-23T12:49:57.434Z,19.50
2022-10-23T12:53:01.499Z,19.40
2022-10-23T12:56:05.672Z,19.40
2022-10-23T12:59:19.954Z,19.30
2022-10-23T13:02:30.734Z,19.30
2022-10-23T13:05:33.008Z,19.30
2022-10-23T13:08:41.080Z,19.30
2022-10-23T13:11:43.095Z,19.30
2022-10-23T13:14:57.031Z,19.40
2022-10-23T13:17:58.596Z,19.40
2022-10-23T13:21:03.314Z,19.20
2022-10-23T13:24:05.078Z,19.20
2022-10-23T13:27:33.266Z,19.30
2022-10-23T13:30:38.435Z,19.50
2022-10-23T13:33:42.537Z,19.70
2022-10-23T13:36:53.892Z,19.90
2022-10-23T13:40:03.835Z,20.00
2022-10-23T13:43:14.208Z,20.10
2022-10-23T13:46:18.411Z,20.10
2022-10-23T13:49:20.383Z,20.20
2022-10-23T13:52:23.705Z,20.20
2022-10-23T13:55:26.993Z,20.20
2022-10-23T13:58:28.565Z,20.10
2022-10-23T14:01:33.598Z,19.90
2022-10-23T14:04:35.282Z,19.90
2022-10-23T14:07:36.878Z,20.00
2022-10-23T14:10:38.462Z,20.00
2022-10-23T14:13:40.678Z,20.00
2022-10-23T14:16:42.398Z,20.00
2022-10-23T14:19:44.070Z,20.00
2022-10-23T14:22:46.419Z,20.00
2022-10-23T14:25:48.244Z,19.90
2022-10-23T14:28:53.430Z,19.80
2022-10-23T14:31:55.065Z,19.80
2022-10-23T14:34:56.713Z,19.80
2022-10-23T14:37:58.587Z,19.80
2022-10-23T14:41:03.476Z,19.70
2022-10-23T14:44:05.055Z,19.70
2022-10-23T14:47:06.695Z,19.70
2022-10-23T14:50:10.656Z,19.50
2022-10-23T14:53:12.813Z,19.40
2022-10-23T14:56:15.412Z,19.30
2022-10-23T14:59:17.018Z,19.30
2022-10-23T15:02:18.645Z,19.30
2022-10-23T15:05:20.519Z,19.30
2022-10-23T15:08:23.293Z,19.30
2022-10-23T15:11:26.150Z,19.20
2022-10-23T15:14:27.859Z,19.20
2022-10-23T15:17:29.490Z,19.20
2022-10-23T15:20:31.372Z,19.10
2022-10-23T15:23:34.676Z,19.10
2022-10-23T15:26:38.035Z,19.00
2022-10-23T15:29:39.702Z,18.90
2022-10-23T15:32:41.394Z,18.80
2022-10-23T15:35:43.182Z,18.70
2022-10-23T15:38:44.806Z,18.70
2022-10-23T15:41:52.130Z,18.60
2022-10-23T15:44:54.134Z,18.60
2022-10-23T15:47:55.781Z,18.50
2022-10-23T15:50:59.058Z,18.40
2022-10-23T15:54:00.742Z,18.40
2022-10-23T15:57:03.349Z,18.30
2022-10-23T16:00:06.971Z,18.30
2022-10-23T16:03:08.674Z,18.30
2022-10-23T16:06:13.597Z,18.20
2022-10-23T16:09:15.598Z,18.20
2022-10-23T16:12:18.220Z,18.10
2022-10-23T16:15:19.825Z,18.00
2022-10-23T16:18:22.580Z,17.90
2022-10-23T16:21:26.676Z,17.80
2022-10-23T16:24:28.610Z,17.70
2022-10-23T16:27:30.205Z,17.60
2022-10-23T16:30:31.870Z,17.40
2022-10-23T16:33:33.524Z,17.30
2022-10-23T16:36:38.802Z,17.30
2022-10-23T16:39:41.526Z,17.30
2022-10-23T16:42:43.416Z,17.20
2022-10-23T16:45:45.589Z,17.20
2022-10-23T16:48:47.837Z,17.10
2022-10-23T16:51:49.546Z,17.10
2022-10-23T16:54:51.333Z,17.10
2022-10-23T16:57:52.959Z,17.00
2022-10-23T17:01:07.625Z,16.90
2022-10-23T17:04:09.426Z,17.00
2022-10-23T17:07:12.981Z,16.90
2022-10-23T17:10:14.772Z,16.80
2022-10-23T17:13:16.403Z,16.70
2022-10-23T17:16:27.665Z,16.70
2022-10-23T17:19:46.949Z,16.70
2022-10-23T17:22:48.834Z,16.60
2022-10-23T17:25:54.787Z,16.60
2022-10-23T17:29:00.937Z,16.60
2022-10-23T17:32:02.755Z,16.60
2022-10-23T17:35:06.129Z,16.50
2022-10-23T17:38:07.709Z,16.30
2022-10-23T17:41:10.151Z,16.20
2022-10-23T17:44:12.286Z,16.10
2022-10-23T17:47:13.967Z,16.10
2022-10-23T17:50:15.808Z,16.10
2022-10-23T17:53:17.391Z,16.00
2022-10-23T17:56:22.535Z,16.00
2022-10-23T17:59:24.365Z,16.00
2022-10-23T18:02:26.625Z,16.10
2022-10-23T18:05:28.403Z,16.00
2022-10-23T18:08:30.412Z,16.00
2022-10-23T18:11:35.237Z,16.10
2022-10-23T18:14:37.689Z,16.10
2022-10-23T18:17:39.405Z,16.20
2022-10-23T18:20:41.825Z,16.20
2022-10-23T18:23:43.966Z,16.30
2022-10-23T18:26:48.090Z,16.30
2022-10-23T18:29:50.525Z,16.30
2022-10-23T18:32:52.335Z,16.30
2022-10-23T18:35:54.075Z,16.30
2022-10-23T18:41:58.438Z,16.30
2022-10-23T18:45:00.578Z,16.30
2022-10-23T18:48:03.131Z,16.30
2022-10-23T18:51:05.166Z,16.30
2022-10-23T18:54:11.186Z,16.30
2022-10-23T18:57:12.782Z,16.30
2022-10-23T19:00:17.198Z,16.20
2022-10-23T19:03:18.790Z,16.20
2022-10-23T19:06:21.268Z,16.20
2022-10-23T19:09:22.911Z,16.10
2022-10-23T19:12:24.576Z,16.00
2022-10-23T19:15:26.312Z,15.90
2022-10-23T19:18:29.076Z,15.90
2022-10-23T19:21:36.579Z,15.80
2022-10-23T19:24:45.100Z,15.80
2022-10-23T19:27:48.442Z,15.70
2022-10-23T19:30:50.705Z,15.70
2022-10-23T19:33:53.316Z,15.60
2022-10-23T19:36:55.062Z,15.60
2022-10-23T19:39:56.656Z,15.60
2022-10-23T19:42:58.287Z,15.60
2022-10-23T19:46:06.470Z,15.60
2022-10-23T19:49:11.243Z,15.70
2022-10-23T19:52:12.882Z,15.70
2022-10-23T19:55:14.474Z,15.80
2022-10-23T19:58:16.389Z,15.80
2022-10-23T20:01:21.114Z,15.80
2022-10-23T20:04:22.828Z,15.80
2022-10-23T20:07:24.471Z,15.90
2022-10-23T20:10:26.127Z,15.90
2022-10-23T20:13:27.776Z,15.90
2022-10-23T20:16:35.874Z,15.90
2022-10-23T20:19:37.953Z,15.90
2022-10-23T20:22:41.770Z,16.00
2022-10-23T20:25:45.656Z,16.00
2022-10-23T20:28:48.453Z,16.00
2022-10-23T20:31:50.539Z,16.00
2022-10-23T20:34:52.806Z,16.10
2022-10-23T20:37:54.447Z,16.10
2022-10-23T20:40:57.945Z,16.10
2022-10-23T20:44:00.479Z,16.10
2022-10-23T20:47:02.203Z,16.10
2022-10-23T20:50:04.156Z,16.10
2022-10-23T20:53:05.741Z,16.10
2022-10-23T20:56:14.271Z,16.00
2022-10-23T20:59:18.342Z,16.00
2022-10-23T21:02:20.173Z,16.00
2022-10-23T21:05:21.967Z,16.00
2022-10-23T21:08:23.584Z,16.00
2022-10-23T21:11:26.229Z,15.90
2022-10-23T21:14:28.563Z,15.90
2022-10-23T21:17:35.088Z,15.90
2022-10-23T21:20:36.791Z,15.90
2022-10-23T21:23:39.381Z,15.80
2022-10-23T21:26:41.488Z,15.90
2022-10-23T21:29:43.344Z,15.90
2022-10-23T21:32:45.002Z,15.90
2022-10-23T21:35:57.798Z,15.80
2022-10-23T21:39:02.074Z,15.80
2022-10-23T21:42:03.880Z,15.80
2022-10-23T21:45:06.041Z,15.80
2022-10-23T21:48:07.715Z,15.80
2022-10-23T21:51:17.859Z,15.70
2022-10-23T21:54:19.483Z,15.70
2022-10-23T21:57:21.284Z,15.70
2022-10-23T22:00:23.034Z,15.60
2022-10-23T22:03:24.821Z,15.60
2022-10-23T22:06:29.140Z,15.60
2022-10-23T22:09:32.181Z,15.60
2022-10-23T22:12:33.756Z,15.60
2022-10-23T22:15:35.489Z,15.60
2022-10-23T22:18:37.485Z,15.60
2022-10-23T22:21:39.649Z,15.50
2022-10-23T22:24:41.289Z,15.50
2022-10-23T22:27:43.127Z,15.60
2022-10-23T22:30:45.057Z,15.50
2022-10-23T22:33:46.760Z,15.40
2022-10-23T22:36:48.492Z,15.40
2022-10-23T22:39:52.081Z,15.40
2022-10-23T22:42:53.729Z,15.30
2022-10-23T22:46:02.873Z,15.30
2022-10-23T22:52:07.393Z,15.20
2022-10-23T22:55:09.952Z,15.10
2022-10-23T22:58:11.742Z,15.00
2022-10-23T23:01:29.325Z,15.00
2022-10-23T23:04:39.182Z,15.00
2022-10-23T23:07:41.305Z,14.80
2022-10-23T23:10:43.090Z,14.80
2022-10-23T23:13:45.488Z,14.80
2022-10-23T23:16:47.200Z,14.80
2022-10-23T23:19:48.824Z,14.70
2022-10-23T23:22:50.532Z,14.70
2022-10-23T23:25:52.290Z,14.70
2022-10-23T23:28:54.695Z,14.60
2022-10-23T23:31:56.346Z,14.50
2022-10-23T23:34:59.609Z,14.50
2022-10-23T23:38:01.407Z,14.50
2022-10-23T23:41:03.662Z,14.40
2022-10-23T23:44:05.401Z,14.40
2022-10-23T23:47:07.028Z,14.40
2022-10-23T23:50:09.924Z,14.40
2022-10-23T23:53:11.589Z,14.40
2022-10-23T23:56:13.336Z,14.30
2022-10-23T23:59:15.036Z,14.20
